Time;durP1;ratioP1;P1;durP2;ratioP2;P2;SDS_P1;SDS_P2;PMS_P1;PMS_P2;Temp;Humidity;BMP_temperature;BMP_pressure;BME280_temperature;BME280_humidity;BME280_pressure;Samples;Min_cycle;Max_cycle;Signal;HPM_P1;HPM_P2
2023/09/19 00:11:10;;;;;;;76.57;39.22;;;;;;;13.83;77.73;100176.84;6276871;22;20015;-93
2023/09/19 00:17:40;;;;;;;78.20;39.97;;;;;;;13.60;77.39;100148.56;6230553;22;20077;-91
2023/09/19 00:20:22;;;;;;;;;;;;;;;;;;;;;
2023/09/19 00:23:40;;;;;;;98.72;36.50;;;;;;;13.36;77.76;100103.00;6295356;22;20185;-92
2023/09/19 00:41:49;;;;;;;166.48;40.67;;;;;;;13.23;77.74;100101.09;6249455;22;20331;-94
2023/09/19 00:45:05;;;;;;;139.45;42.42;;;;;;;13.72;77.89;100179.03;6261400;22;20025;-94
2023/09/19 00:47:33;;;;;;;202.25;44.38;;;;;;;13.28;77.80;100120.22;6259920;22;20113;-94
2023/09/19 00:50:07;;;;;;;181.10;45.58;;;;;;;13.43;77.49;100159.44;6261609;22;20015;-94
2023/09/19 00:52:39;;;;;;;212.10;42.13;;;;;;;13.22;77.78;100146.16;6262372;22;20021;-93
2023/09/19 00:55:11;;;;;;;186.00;43.03;;;;;;;13.13;78.24;100139.78;6233855;23;20111;-92
2023/09/19 00:58:35;;;;;;;283.45;45.25;;;;;;;13.43;78.32;100189.63;6197252;23;20016;-90
2023/09/19 01:01:26;;;;;;;133.13;41.30;;;;;;;13.41;78.34;100184.47;6197769;23;20449;-94
2023/09/19 01:04:02;;;;;;;149.35;40.70;;;;;;;13.30;78.29;100166.59;6201135;22;20019;-91
2023/09/19 01:07:18;;;;;;;110.45;37.22;;;;;;;13.50;78.10;100181.78;6246295;22;20460;-92
2023/09/19 01:09:45;;;;;;;149.45;39.13;;;;;;;13.24;78.21;100152.16;6255562;22;20058;-91
2023/09/19 01:19:11;;;;;;;135.43;38.28;;;;;;;13.25;79.34;100183.19;6262885;22;20046;-93
2023/09/19 01:21:45;;;;;;;137.88;35.17;;;;;;;12.88;79.36;100136.50;6237040;22;20126;-90
2023/09/19 01:28:26;;;;;;;129.48;37.00;;;;;;;13.28;79.23;100180.66;6309163;22;20023;-90
2023/09/19 01:35:20;;;;;;;109.80;35.72;;;;;;;13.42;77.98;100179.78;6319085;22;20049;-95
2023/09/19 01:56:39;;;;;;;65.95;30.95;;;;;;;13.08;76.33;100104.22;6177307;22;20028;-92
2023/09/19 02:29:56;;;;;;;80.80;31.35;;;;;;;13.03;75.48;100098.81;6296401;22;20018;-94
2023/09/19 02:48:38;;;;;;;138.23;34.13;;;;;;;13.24;76.17;100143.91;6308524;22;20028;-93
2023/09/19 02:51:39;;;;;;;166.35;36.83;;;;;;;13.20;76.23;100145.63;6196223;22;20016;-93
2023/09/19 02:54:47;;;;;;;107.32;34.15;;;;;;;13.19;76.26;100134.97;6239476;22;20019;-95
2023/09/19 03:01:49;;;;;;;273.23;39.80;;;;;;;13.14;76.07;100144.13;6258759;22;20019;-92
2023/09/19 03:05:02;;;;;;;;;;;;;;;;;;;;;
2023/09/19 03:22:12;;;;;;;83.47;32.70;;;;;;;13.01;75.74;100142.22;6285081;22;20022;-92
2023/09/19 03:28:35;;;;;;;77.90;30.00;;;;;;;13.05;76.02;100143.25;6255096;22;20011;-92
2023/09/19 03:31:06;;;;;;;66.75;28.33;;;;;;;12.87;75.81;100129.34;6309856;22;20010;-92
2023/09/19 03:37:10;;;;;;;55.58;27.20;;;;;;;12.80;75.37;100093.28;6273127;22;20054;-90
2023/09/19 03:40:04;;;;;;;60.50;27.60;;;;;;;13.10;75.29;100145.88;6196112;23;20020;-93
2023/09/19 03:42:56;;;;;;;57.65;26.60;;;;;;;12.83;75.03;100105.59;6227196;22;20000;-93
2023/09/19 03:46:30;;;;;;;59.88;27.15;;;;;;;13.05;75.13;100143.25;6222241;22;20004;-93
2023/09/19 03:49:54;;;;;;;50.53;24.88;;;;;;;13.10;75.08;100146.69;6196890;23;20082;-92
2023/09/19 03:53:27;;;;;;;49.50;24.67;;;;;;;13.05;75.03;100137.78;6194241;22;20031;-93
2023/09/19 03:56:18;;;;;;;51.10;25.02;;;;;;;13.09;74.98;100138.78;6201677;22;20083;-94
2023/09/19 03:58:45;;;;;;;60.47;23.45;;;;;;;12.94;74.79;100116.00;6221321;22;20054;-93
2023/09/19 04:01:18;;;;;;;54.00;25.03;;;;;;;12.70;74.97;100071.56;6245444;23;20020;-95
2023/09/19 04:06:45;;;;;;;53.08;21.45;;;;;;;13.09;74.35;100123.09;6206339;23;20059;-87
2023/09/19 04:09:11;;;;;;;45.58;21.42;;;;;;;13.22;74.32;100142.59;6204554;23;20009;-87
2023/09/19 04:11:38;;;;;;;;;;;;;;;13.22;73.88;100139.84;6179745;23;20023;-83
2023/09/19 04:14:04;;;;;;;39.63;19.27;;;;;;;13.00;73.99;100110.44;6208107;23;19900;-86
2023/09/19 04:16:30;;;;;;;39.65;18.75;;;;;;;13.21;73.80;100138.22;6184770;23;20012;-86
2023/09/19 04:18:56;;;;;;;38.23;18.87;;;;;;;13.00;73.61;100100.25;6186364;23;20065;-88
2023/09/19 04:21:28;;;;;;;41.28;19.23;;;;;;;13.23;73.55;100134.03;6212656;23;20019;-88
2023/09/19 04:28:04;;;;;;;42.75;18.42;;;;;;;13.00;73.29;100074.75;6208764;23;20025;-88
2023/09/19 04:32:00;;;;;;;49.15;19.10;;;;;;;12.78;73.21;100054.41;6193917;23;20024;-88
2023/09/19 04:34:30;;;;;;;44.10;19.30;;;;;;;13.03;73.19;100076.88;6183664;23;20028;-85
2023/09/19 04:36:58;;;;;;;52.05;20.55;;;;;;;13.20;73.46;100114.63;6209772;23;20027;-86
2023/09/19 04:39:27;;;;;;;61.80;20.48;;;;;;;13.16;73.39;100106.22;6186000;23;20012;-88
2023/09/19 04:41:59;;;;;;;40.05;19.52;;;;;;;13.01;73.49;100085.41;6209703;23;20057;-88
2023/09/19 04:45:49;;;;;;;59.92;20.98;;;;;;;13.28;73.22;100111.19;6248511;23;20077;-88
2023/09/19 04:48:34;;;;;;;47.83;20.70;;;;;;;13.27;73.17;100113.09;6220507;23;20016;-89
2023/09/19 04:51:03;;;;;;;60.10;23.33;;;;;;;13.02;73.39;100087.03;6273007;22;20058;-88
2023/09/19 04:53:37;;;;;;;47.35;23.23;;;;;;;13.26;73.32;100108.75;6271320;22;20130;-89
2023/09/19 04:56:06;;;;;;;;;;;;;;;13.27;73.80;100112.28;6272645;23;20016;-89
2023/09/19 04:58:32;;;;;;;47.17;25.40;;;;;;;13.08;73.99;100085.00;6272459;22;19899;-90
2023/09/19 05:01:15;;;;;;;52.35;26.42;;;;;;;13.23;74.22;100103.84;6221329;23;20043;-88
2023/09/19 05:04:51;;;;;;;54.28;27.67;;;;;;;13.36;73.72;100119.47;6247335;22;20015;-89
2023/09/19 05:07:31;;;;;;;74.20;33.53;;;;;;;13.36;73.83;100122.22;6186362;23;20033;-88
2023/09/19 05:09:57;;;;;;;77.25;29.42;;;;;;;13.44;74.05;100112.41;6137864;23;20016;-88
2023/09/19 05:12:24;;;;;;;55.08;27.55;;;;;;;13.44;73.88;100115.16;6183720;23;20012;-88
2023/09/19 05:14:52;;;;;;;57.80;25.88;;;;;;;13.28;73.52;100070.00;6124733;23;20017;-89
2023/09/19 05:18:06;;;;;;;53.47;24.83;;;;;;;13.45;73.59;100105.81;6148235;23;20028;-88
2023/09/19 05:20:39;;;;;;;42.60;23.50;;;;;;;13.55;74.10;100102.81;6126068;23;20025;-88
2023/09/19 05:23:26;;;;;;;42.35;21.63;;;;;;;13.68;74.08;100103.06;6121750;23;20013;-89
2023/09/19 05:25:54;;;;;;;47.60;22.35;;;;;;;13.77;73.81;100107.44;6143276;23;19997;-87
2023/09/19 05:28:23;;;;;;;55.05;21.13;;;;;;;13.77;73.52;100104.69;6115443;23;20022;-88
2023/09/19 05:31:04;;;;;;;63.47;22.48;;;;;;;13.70;73.63;100101.59;6139449;23;20033;-88
2023/09/19 05:33:33;;;;;;;68.60;21.10;;;;;;;13.75;73.25;100092.41;6177586;22;20007;-89
2023/09/19 05:36:02;;;;;;;73.18;22.73;;;;;;;13.92;73.13;100097.19;6352757;22;20050;-87
2023/09/19 05:38:29;;;;;;;63.58;21.42;;;;;;;13.79;73.16;100060.44;6353479;22;20078;-90
2023/09/19 05:40:55;;;;;;;54.25;20.25;;;;;;;14.07;72.75;100094.84;6301512;22;20022;-89
2023/09/19 05:43:47;;;;;;;64.50;20.42;;;;;;;14.06;73.21;100095.16;6304904;22;20102;-89
2023/09/19 05:46:21;;;;;;;42.63;19.27;;;;;;;13.87;73.31;100051.41;6326792;22;20048;-95
2023/09/19 05:49:47;;;;;;;46.88;20.95;;;;;;;14.24;73.00;100094.09;6300362;22;20015;-91
2023/09/19 05:52:52;;;;;;;42.20;18.73;;;;;;;14.33;72.86;100080.34;6322011;22;20051;-89
2023/09/19 05:58:22;;;;;;;34.30;19.70;;;;;;;14.40;72.79;100066.94;6360965;22;20027;-89
2023/09/19 06:01:15;;;;;;;32.58;18.80;;;;;;;14.61;72.97;100078.19;6311700;22;19999;-90
2023/09/19 06:03:45;;;;;;;42.78;20.33;;;;;;;14.57;72.58;100069.78;6363657;22;20074;-86
2023/09/19 06:06:14;;;;;;;47.83;20.88;;;;;;;14.60;72.48;100081.25;6362456;22;20093;-91
2023/09/19 06:09:08;;;;;;;85.85;20.73;;;;;;;14.24;73.04;100025.34;6317243;22;20037;-89
2023/09/19 06:12:05;;;;;;;32.95;18.88;;;;;;;14.27;72.82;100013.72;6290897;22;20007;-90
2023/09/19 06:18:33;;;;;;;36.03;18.73;;;;;;;14.93;72.45;100082.44;6292906;22;20029;-95
2023/09/19 06:21:07;;;;;;;42.05;19.38;;;;;;;14.75;72.24;100040.31;6292158;22;20015;-92
2023/09/19 06:23:37;;;;;;;33.05;17.15;;;;;;;14.50;72.53;100010.81;6269948;22;20045;-88
2023/09/19 06:26:06;;;;;;;36.92;18.05;;;;;;;14.50;72.94;100019.94;6214512;22;20027;-89
2023/09/19 06:29:53;;;;;;;29.80;18.73;;;;;;;14.92;73.23;100075.31;6289469;22;20019;-92
2023/09/19 06:33:05;;;;;;;39.70;21.33;;;;;;;14.97;73.46;100071.59;6297482;22;20024;-88
2023/09/19 06:39:56;;;;;;;32.63;18.80;;;;;;;15.12;73.29;100048.25;6296793;22;20016;-87
2023/09/19 06:43:16;;;;;;;34.77;18.67;;;;;;;15.36;73.31;100065.06;6271095;22;20018;-89
2023/09/19 06:45:54;;;;;;;73.15;18.90;;;;;;;15.11;72.97;100021.88;6240241;22;20293;-88
2023/09/19 06:50:13;;;;;;;38.80;18.77;;;;;;;15.30;72.87;100027.84;6267641;22;20119;-88
2023/09/19 06:52:46;;;;;;;36.20;18.45;;;;;;;15.52;72.52;100044.13;6180460;23;20036;-88
2023/09/19 06:55:30;;;;;;;38.63;18.35;;;;;;;15.34;72.27;100001.25;6206081;22;20016;-88
2023/09/19 06:58:24;;;;;;;44.03;19.55;;;;;;;15.59;72.39;100031.78;6205539;22;20052;-88
2023/09/19 07:01:21;;;;;;;35.17;18.98;;;;;;;15.83;71.82;100031.28;6180936;22;20001;-86
2023/09/19 07:04:19;;;;;;;32.13;17.15;;;;;;;16.27;70.99;100064.97;6086265;23;20027;-94
2023/09/19 07:06:51;;;;;;;31.50;16.98;;;;;;;16.29;70.10;100057.16;6048438;23;20030;-89
2023/09/19 07:10:18;;;;;;;40.97;18.70;;;;;;;16.44;69.73;100078.66;6087698;23;20090;-87
2023/09/19 07:13:17;;;;;;;26.55;18.20;;;;;;;16.67;69.61;100073.66;6061009;23;20113;-87
2023/09/19 07:21:17;;;;;;;33.05;18.65;;;;;;;16.84;68.76;100059.75;6326702;22;20082;-89
2023/09/19 07:23:47;;;;;;;35.05;18.40;;;;;;;16.94;68.09;100058.53;6328000;22;20023;-88
2023/09/19 07:26:33;;;;;;;38.28;18.00;;;;;;;17.21;68.14;100075.69;6304335;22;20018;-88
2023/09/19 07:29:58;;;;;;;40.50;17.40;;;;;;;17.19;67.87;100067.75;6254951;22;20022;-91
2023/09/19 10:31:34;;;;;;;24.65;12.95;;;;;;;20.66;59.05;99864.19;6282693;22;20121;-89
2023/09/19 10:34:35;;;;;;;44.13;19.63;;;;;;;21.23;58.97;99926.41;6247553;22;20019;-89
2023/09/19 10:39:58;;;;;;;26.13;15.10;;;;;;;21.17;58.39;99888.97;6310073;22;20027;-89
2023/09/19 10:42:41;;;;;;;29.83;14.18;;;;;;;21.49;57.87;99922.09;6272323;22;20079;-90
2023/09/19 10:46:05;;;;;;;34.85;13.98;;;;;;;21.50;58.09;99918.16;6261687;22;20015;-88
2023/09/19 10:48:43;;;;;;;39.30;14.60;;;;;;;21.16;57.58;99842.06;6319674;22;20023;-90
2023/09/19 10:54:45;;;;;;;28.42;14.73;;;;;;;21.88;57.18;99897.66;6318025;22;20011;-90
2023/09/19 10:57:27;;;;;;;65.47;16.38;;;;;;;21.79;56.85;99861.78;6291003;22;20019;-88
2023/09/19 11:03:53;;;;;;;31.92;18.50;;;;;;;22.24;55.98;99884.28;6299366;22;20023;-90
2023/09/19 11:07:12;;;;;;;41.95;19.10;;;;;;;22.02;55.95;99838.63;6296265;22;20097;-86
2023/09/19 11:09:54;;;;;;;34.92;16.20;;;;;;;22.47;55.55;99882.19;6316614;22;20079;-88
2023/09/19 11:12:45;;;;;;;26.05;13.15;;;;;;;22.68;54.71;99883.63;6319012;22;20108;-89
2023/09/19 11:16:23;;;;;;;24.10;14.32;;;;;;;22.47;55.65;99875.81;6331345;22;20038;-89
2023/09/19 11:20:24;;;;;;;84.78;16.17;;;;;;;22.47;55.28;99879.41;6332030;22;20019;-87
2023/09/19 11:24:24;;;;;;;37.03;15.70;;;;;;;22.45;55.79;99880.97;6335861;22;20045;-86
2023/09/19 11:27:20;;;;;;;31.92;15.20;;;;;;;22.66;55.23;99878.44;6321320;22;20024;-88
2023/09/19 11:33:46;;;;;;;30.98;15.27;;;;;;;23.03;54.29;99874.88;6288617;22;20471;-88
2023/09/19 11:36:24;;;;;;;27.20;13.88;;;;;;;22.92;54.10;99840.47;6268467;22;20019;-88
2023/09/19 11:39:33;;;;;;;104.15;32.40;;;;;;;23.26;54.00;99879.47;6317034;22;20569;-88
2023/09/19 11:45:59;;;;;;;38.58;15.85;;;;;;;23.13;54.15;99870.56;6321791;22;20011;-88
2023/09/19 11:49:20;;;;;;;30.25;15.20;;;;;;;22.99;54.26;99865.66;6327918;22;20019;-88
2023/09/19 11:52:15;;;;;;;52.78;15.40;;;;;;;22.42;55.05;99804.53;6325171;22;20019;-88
2023/09/19 11:57:55;;;;;;;21.63;13.07;;;;;;;22.77;54.78;99805.28;6225489;23;20470;-87
2023/09/19 12:00:23;;;;;;;41.00;17.15;;;;;;;22.72;55.75;99837.91;6218290;23;20024;-89
2023/09/19 12:03:14;;;;;;;44.55;15.60;;;;;;;22.59;55.16;99816.25;6181905;23;20033;-87
2023/09/19 12:06:27;;;;;;;46.90;16.00;;;;;;;22.91;56.46;99844.44;6197704;23;20044;-86
2023/09/19 12:09:00;;;;;;;41.15;18.15;;;;;;;22.65;55.61;99806.34;6171462;23;20017;-86
2023/09/19 12:14:50;;;;;;;56.88;15.85;;;;;;;22.72;55.54;99815.59;6321017;22;20035;-88
2023/09/19 12:17:22;;;;;;;43.75;15.23;;;;;;;22.72;56.52;99804.44;6352766;22;20010;-89
2023/09/19 12:20:25;;;;;;;39.40;14.30;;;;;;;22.78;56.64;99798.50;6330255;22;20014;-88
2023/09/19 12:23:14;;;;;;;24.58;14.80;;;;;;;22.58;55.65;99768.06;6321209;22;20026;-86
2023/09/19 12:26:12;;;;;;;35.28;14.38;;;;;;;22.83;56.44;99818.47;6194886;23;20016;-87
2023/09/19 12:29:10;;;;;;;65.65;18.48;;;;;;;22.78;56.63;99790.16;6197200;23;20047;-88
2023/09/19 12:32:04;;;;;;;94.35;14.55;;;;;;;23.10;56.28;99819.16;6192878;23;20017;-87
2023/09/19 12:34:49;;;;;;;;;;;;;;;;;;;;;
2023/09/19 12:37:55;;;;;;;26.00;12.55;;;;;;;23.35;54.58;99813.00;6226973;23;20017;-89
2023/09/19 12:40:27;;;;;;;37.03;12.70;;;;;;;23.47;53.97;99815.44;6201896;23;20478;-89
2023/09/19 12:43:39;;;;;;;24.23;11.65;;;;;;;23.34;53.74;99730.47;6192845;23;20035;-88
2023/09/19 12:46:32;;;;;;;22.60;12.10;;;;;;;23.94;53.17;99799.81;6228704;22;20026;-90
2023/09/19 12:53:29;;;;;;;40.10;12.63;;;;;;;24.08;51.81;99760.78;6265883;23;20030;-90
2023/09/19 13:00:46;;;;;;;28.67;12.00;;;;;;;23.96;52.62;99772.28;6259611;23;20020;-88
2023/09/19 13:03:32;;;;;;;39.60;12.63;;;;;;;23.92;53.76;99775.06;6207724;23;20032;-90
2023/09/19 13:09:17;;;;;;;31.95;12.90;;;;;;;23.94;53.33;99785.88;6350974;22;20038;-89
2023/09/19 13:18:59;;;;;;;21.77;12.07;;;;;;;23.82;53.82;99791.78;6232615;22;20075;-90
2023/09/19 13:21:42;;;;;;;40.92;13.50;;;;;;;23.71;54.40;99774.16;6201423;23;20023;-87
2023/09/19 13:24:59;;;;;;;46.42;13.02;;;;;;;23.52;55.72;99753.69;6141590;23;20499;-88
2023/09/19 13:28:32;;;;;;;40.70;13.98;;;;;;;23.59;55.04;99773.28;6126554;23;20032;-90
2023/09/19 13:31:05;;;;;;;44.28;13.38;;;;;;;23.27;56.10;99749.94;6142566;23;20017;-88
2023/09/19 13:34:43;;;;;;;37.83;12.90;;;;;;;23.25;56.66;99769.88;6098138;23;20022;-88
2023/09/19 13:37:20;;;;;;;31.80;13.57;;;;;;;23.13;57.26;99768.19;6118669;23;20061;-91
2023/09/19 13:39:48;;;;;;;58.95;14.40;;;;;;;22.77;57.48;99714.09;6090935;23;20018;-90
2023/09/19 13:43:22;;;;;;;33.65;12.98;;;;;;;23.06;56.91;99759.75;6087677;23;20022;-90
2023/09/19 13:45:50;;;;;;;35.20;13.10;;;;;;;22.64;57.19;99710.00;6114408;23;20053;-90
2023/09/19 13:48:24;;;;;;;32.90;13.68;;;;;;;22.73;57.89;99736.38;6095073;23;20002;-91
2023/09/19 13:51:15;;;;;;;44.97;16.27;;;;;;;22.80;57.42;99765.50;6111971;23;20089;-88
2023/09/19 13:53:53;;;;;;;45.03;14.40;;;;;;;22.31;57.87;99694.97;6139954;23;20017;-90
2023/09/19 13:56:20;;;;;;;83.82;14.55;;;;;;;22.61;58.63;99741.41;6143736;23;20028;-88
2023/09/19 13:58:54;;;;;;;51.15;18.60;;;;;;;22.33;58.19;99714.09;6124127;23;20025;-89
2023/09/19 14:01:44;;;;;;;35.17;15.80;;;;;;;22.62;58.83;99759.75;6110164;23;20016;-90
2023/09/19 14:04:29;;;;;;;51.53;17.50;;;;;;;22.35;59.23;99722.84;6190958;23;20035;-90
2023/09/19 14:06:57;;;;;;;34.08;15.00;;;;;;;22.21;59.64;99710.38;6295705;22;20030;-89
2023/09/19 14:10:14;;;;;;;77.35;16.58;;;;;;;22.23;59.63;99727.53;6330494;22;20018;-88
2023/09/19 14:13:58;;;;;;;51.97;18.20;;;;;;;21.90;59.65;99688.56;6328765;22;20027;-89
2023/09/19 14:23:59;;;;;;;44.08;20.38;;;;;;;22.00;61.58;99746.31;6328515;22;20035;-88
2023/09/19 14:26:25;;;;;;;47.05;23.45;;;;;;;21.84;62.19;99729.03;6254133;22;20022;-88
2023/09/19 14:32:26;;;;;;;50.03;23.88;;;;;;;21.69;62.95;99725.25;6271548;22;20076;-90
2023/09/19 14:36:01;;;;;;;59.53;25.10;;;;;;;21.42;62.99;99697.47;6189307;23;20034;-90
2023/09/19 14:39:32;;;;;;;71.50;23.15;;;;;;;21.32;63.41;99696.16;6271390;22;20031;-89
2023/09/19 14:42:17;;;;;;;50.92;21.67;;;;;;;21.51;64.23;99741.72;6265791;22;20008;-90
2023/09/19 14:44:44;;;;;;;49.08;23.05;;;;;;;20.98;64.46;99670.22;6232988;23;20016;-89
2023/09/19 14:47:27;;;;;;;51.13;20.33;;;;;;;21.20;64.69;99710.28;6213806;23;20020;-89
2023/09/19 14:50:29;;;;;;;63.95;25.10;;;;;;;20.87;65.13;99672.06;6270493;23;20000;-92
2023/09/19 14:54:11;;;;;;;75.45;21.95;;;;;;;20.69;65.88;99660.63;6288329;22;20034;-88
2023/09/19 14:56:44;;;;;;;101.32;22.48;;;;;;;21.03;66.87;99730.28;6277831;22;20026;-89
2023/09/19 14:59:12;;;;;;;63.78;20.20;;;;;;;20.86;67.18;99726.84;6355863;22;20019;-90
2023/09/19 15:02:08;;;;;;;82.55;19.73;;;;;;;20.80;67.49;99731.09;6354853;22;20048;-90
2023/09/19 15:10:36;;;;;;;53.25;20.25;;;;;;;20.52;68.27;99733.38;6336570;22;20074;-90
2023/09/19 18:30:22;;;;;;;85.18;37.83;;;;;;;16.83;75.96;99687.31;6350589;22;20038;-88
2023/09/19 18:32:51;;;;;;;78.72;35.03;;;;;;;16.93;75.98;99697.91;6328419;22;20094;-92
2023/09/19 18:35:35;;;;;;;82.63;31.23;;;;;;;17.24;75.75;99735.16;6322580;22;20011;-89
2023/09/19 18:38:07;;;;;;;100.57;32.55;;;;;;;17.02;75.35;99700.53;6299550;22;20075;-88
2023/09/19 18:41:14;;;;;;;70.30;27.65;;;;;;;16.88;75.21;99684.31;6256349;23;20390;-87
2023/09/19 18:44:01;;;;;;;53.42;25.77;;;;;;;17.29;75.13;99746.00;6253453;23;20031;-87
2023/09/19 18:50:13;;;;;;;68.90;24.47;;;;;;;17.23;75.72;99747.38;6170712;23;20017;-87
2023/09/19 18:53:12;;;;;;;71.20;21.70;;;;;;;16.63;75.85;99667.72;6163803;23;20039;-89
2023/09/19 18:56:44;;;;;;;56.92;21.05;;;;;;;17.13;76.01;99745.88;6165501;23;20094;-88
2023/09/19 18:59:56;;;;;;;40.30;18.48;;;;;;;17.10;76.08;99747.38;6168893;23;20021;-87
2023/09/19 19:02:43;;;;;;;42.17;18.33;;;;;;;16.75;75.53;99680.75;6176310;23;20021;-90
2023/09/19 19:09:57;;;;;;;42.33;18.73;;;;;;;17.04;76.08;99740.47;6200933;23;20017;-87
2023/09/19 19:13:12;;;;;;;49.40;19.55;;;;;;;16.79;76.28;99714.81;6190160;23;20021;-86
2023/09/19 19:15:44;;;;;;;39.28;18.83;;;;;;;16.72;76.47;99714.56;6193620;23;20123;-92
2023/09/19 19:18:21;;;;;;;39.83;18.83;;;;;;;16.52;76.66;99677.59;6218698;23;20058;-89
2023/09/19 19:21:40;;;;;;;41.35;19.63;;;;;;;16.87;76.87;99735.19;6258117;23;20090;-87
